Time;durP1;ratioP1;P1;durP2;ratioP2;P2;SDS_P1;SDS_P2;PMS_P1;PMS_P2;Temp;Humidity;BMP_temperature;BMP_pressure;BME280_temperature;BME280_humidity;BME280_pressure;Samples;Min_cycle;Max_cycle;Signal;HPM_P1;HPM_P2
2023/02/04 00:01:06;;;;;;;;;;;;;;;11.48;46.31;101052.28;4928813;28;97986;-66
2023/02/04 00:03:32;;;;;;;;;;;;;;;11.48;46.38;101063.09;4941330;28;116948;-67
2023/02/04 00:05:58;;;;;;;;;;;;;;;11.47;46.37;101082.22;4924595;28;128609;-67
2023/02/04 00:08:24;;;;;;;;;;;;;;;11.47;46.31;101087.63;4927702;28;98184;-67
2023/02/04 00:10:50;;;;;;;;;;;;;;;11.45;46.23;101096.00;4908938;28;104852;-67
2023/02/04 00:13:16;;;;;;;;;;;;;;;11.44;46.33;101096.25;4941520;28;128135;-67
2023/02/04 00:15:41;;;;;;;;;;;;;;;11.43;46.39;101116.22;4938857;28;128331;-67
2023/02/04 00:18:08;;;;;;;;;;;;;;;11.42;46.32;101117.28;4941010;28;129274;-67
2023/02/04 00:20:34;;;;;;;;;;;;;;;11.41;46.35;101123.75;4923188;28;99069;-67
2023/02/04 00:23:00;;;;;;;;;;;;;;;11.40;46.32;101131.06;4924499;28;129789;-67
2023/02/04 00:25:26;;;;;;;;;;;;;;;11.39;46.56;101134.81;4925032;28;114188;-68
2023/02/04 00:27:52;;;;;;;;;;;;;;;11.40;46.29;101141.84;4907811;28;98174;-67
2023/02/04 00:30:18;;;;;;;;;;;;;;;11.39;46.53;101142.09;4923837;28;117011;-67
2023/02/04 00:32:43;;;;;;;;;;;;;;;11.38;46.29;101143.97;4939734;28;99153;-66
2023/02/04 00:35:09;;;;;;;;;;;;;;;11.37;46.23;101157.75;4929816;28;126612;-67
2023/02/04 00:37:35;;;;;;;;;;;;;;;11.36;45.90;101165.03;4925755;28;121912;-67
2023/02/04 00:40:01;;;;;;;;;;;;;;;11.36;46.32;101174.97;4926481;28;118080;-67
2023/02/04 00:42:27;;;;;;;;;;;;;;;11.33;46.32;101162.84;4955588;28;128175;-67
2023/02/04 00:44:53;;;;;;;;;;;;;;;11.32;46.47;101190.91;4922089;28;116932;-67
2023/02/04 00:47:19;;;;;;;;;;;;;;;11.31;46.47;101203.56;4956068;28;98119;-67
2023/02/04 00:49:45;;;;;;;;;;;;;;;11.31;46.47;101208.13;4954453;28;114569;-67
2023/02/04 00:52:11;;;;;;;;;;;;;;;11.29;46.51;101221.91;4936620;28;127413;-68
2023/02/04 00:54:37;;;;;;;;;;;;;;;11.27;46.18;101221.31;4939852;28;127232;-67
2023/02/04 00:57:03;;;;;;;;;;;;;;;11.27;46.52;101224.03;4939312;28;128834;-67
2023/02/04 00:59:28;;;;;;;;;;;;;;;11.25;46.12;101234.28;4924283;28;112691;-68
2023/02/04 01:01:54;;;;;;;;;;;;;;;11.24;46.25;101251.53;4940067;28;129891;-68
2023/02/04 01:04:20;;;;;;;;;;;;;;;11.25;46.59;101252.34;4940046;28;125896;-68
2023/02/04 01:06:46;;;;;;;;;;;;;;;11.24;46.09;101253.44;4940881;28;98843;-67
2023/02/04 01:09:12;;;;;;;;;;;;;;;11.23;46.34;101260.69;4922809;28;116414;-67
2023/02/04 01:11:38;;;;;;;;;;;;;;;11.23;46.45;101276.88;4920600;28;99570;-66
2023/02/04 01:14:04;;;;;;;;;;;;;;;11.22;46.26;101293.34;4919119;28;127601;-67
2023/02/04 01:16:30;;;;;;;;;;;;;;;11.20;46.41;101295.44;4938540;28;98127;-66
2023/02/04 01:18:56;;;;;;;;;;;;;;;11.18;46.46;101306.50;4923405;28;116701;-66
2023/02/04 01:21:22;;;;;;;;;;;;;;;11.17;46.34;101312.16;4956836;28;98428;-66
2023/02/04 01:23:49;;;;;;;;;;;;;;;11.15;46.49;101325.91;4940771;28;99703;-66
2023/02/04 01:26:18;;;;;;;;;;;;;;;11.13;46.12;101336.13;4925556;28;98003;-66
2023/02/04 01:28:44;;;;;;;;;;;;;;;11.12;46.12;101350.69;4940300;28;98167;-67
2023/02/04 01:31:10;;;;;;;;;;;;;;;11.12;46.24;101358.78;4922790;28;98392;-66
2023/02/04 01:33:36;;;;;;;;;;;;;;;11.10;46.31;101360.91;4940394;28;128040;-66
2023/02/04 01:36:02;;;;;;;;;;;;;;;11.10;46.39;101373.59;4920650;28;128273;-67
2023/02/04 01:38:28;;;;;;;;;;;;;;;11.09;46.08;101377.38;4924475;28;97983;-66
2023/02/04 01:40:53;;;;;;;;;;;;;;;11.07;46.05;101378.41;4937868;28;130354;-67
2023/02/04 01:43:21;;;;;;;;;;;;;;;11.08;46.43;101384.63;4919870;28;129791;-66
2023/02/04 01:45:47;;;;;;;;;;;;;;;11.05;46.38;101385.94;4940697;28;99618;-67
2023/02/04 01:48:19;;;;;;;;;;;;;;;11.06;46.29;101402.94;4938134;28;98235;-67
2023/02/04 01:50:46;;;;;;;;;;;;;;;11.05;46.41;101407.53;4929154;28;98591;-67
2023/02/04 01:53:12;;;;;;;;;;;;;;;11.05;46.06;101425.59;4923281;28;99596;-67
2023/02/04 01:55:38;;;;;;;;;;;;;;;11.02;46.28;101418.81;4923843;28;127659;-66
2023/02/04 01:58:03;;;;;;;;;;;;;;;11.03;46.19;101441.22;4923141;28;117567;-66
2023/02/04 02:00:34;;;;;;;;;;;;;;;11.01;46.23;101448.75;4955703;28;127052;-66
2023/02/04 02:03:02;;;;;;;;;;;;;;;11.00;46.30;101456.03;4923559;28;98888;-66
2023/02/04 02:05:31;;;;;;;;;;;;;;;10.97;46.37;101455.69;4927682;28;98170;-66
2023/02/04 02:07:58;;;;;;;;;;;;;;;10.95;46.27;101455.13;4944027;28;98009;-66
2023/02/04 02:10:24;;;;;;;;;;;;;;;10.94;46.15;101467.78;4942843;28;115540;-66
2023/02/04 02:12:50;;;;;;;;;;;;;;;10.93;45.90;101481.53;4942447;28;113466;-66
2023/02/04 02:15:19;;;;;;;;;;;;;;;10.91;46.16;101484.47;4926739;28;109035;-66
2023/02/04 02:17:44;;;;;;;;;;;;;;;10.91;46.29;101507.91;4933245;28;97947;-66
2023/02/04 02:20:12;;;;;;;;;;;;;;;10.89;46.34;101513.56;4940761;28;128229;-67
2023/02/04 02:22:47;;;;;;;;;;;;;;;10.90;46.02;101522.47;4939279;28;98364;-66
2023/02/04 02:25:13;;;;;;;;;;;;;;;10.88;45.86;101527.28;4958508;28;98387;-66
2023/02/04 02:27:39;;;;;;;;;;;;;;;10.86;46.09;101541.03;4928478;28;98469;-66
2023/02/04 02:30:06;;;;;;;;;;;;;;;10.86;46.28;101549.13;4928124;28;98711;-67
2023/02/04 02:32:32;;;;;;;;;;;;;;;10.86;46.42;101561.78;4942563;28;128140;-67
2023/02/04 02:34:58;;;;;;;;;;;;;;;10.84;46.02;101578.19;4959332;28;126870;-67
2023/02/04 02:37:24;;;;;;;;;;;;;;;10.84;45.98;101591.69;4926056;28;122594;-67
2023/02/04 02:39:50;;;;;;;;;;;;;;;10.84;46.15;101596.25;4944255;28;127696;-67
2023/02/04 02:42:16;;;;;;;;;;;;;;;10.83;45.97;101600.84;4926119;28;128169;-67
2023/02/04 02:44:43;;;;;;;;;;;;;;;10.84;46.13;101624.06;4927913;28;98077;-66
2023/02/04 02:47:12;;;;;;;;;;;;;;;10.84;46.05;101639.41;4943160;28;110833;-66
2023/02/04 02:49:39;;;;;;;;;;;;;;;10.84;45.96;101632.16;4926924;28;99927;-65
2023/02/04 02:52:05;;;;;;;;;;;;;;;10.84;46.39;101639.41;4942196;28;100004;-66
2023/02/04 02:54:32;;;;;;;;;;;;;;;10.82;46.28;101645.06;4941652;28;128506;-66
2023/02/04 02:56:57;;;;;;;;;;;;;;;10.80;46.28;101650.69;4927225;28;98037;-66
2023/02/04 02:59:24;;;;;;;;;;;;;;;10.79;46.30;101656.34;4925655;28;128551;-66
2023/02/04 03:01:56;;;;;;;;;;;;;;;10.78;45.99;101668.19;4923330;28;98109;-66
2023/02/04 03:04:22;;;;;;;;;;;;;;;10.76;46.00;101675.69;4939598;28;97994;-67
2023/02/04 03:06:48;;;;;;;;;;;;;;;10.72;46.13;101675.34;4925499;28;118544;-66
2023/02/04 03:09:14;;;;;;;;;;;;;;;10.71;46.39;101689.06;4924641;28;125946;-66
2023/02/04 03:11:40;;;;;;;;;;;;;;;10.67;46.48;101690.59;4930066;28;129354;-66
2023/02/04 03:14:06;;;;;;;;;;;;;;;10.66;46.13;101707.84;4925782;28;118577;-66
2023/02/04 03:16:32;;;;;;;;;;;;;;;10.64;46.02;101720.75;4926844;28;97977;-66
2023/02/04 03:18:59;;;;;;;;;;;;;;;10.61;46.32;101722.06;4925305;28;98031;-67
2023/02/04 03:21:25;;;;;;;;;;;;;;;10.59;46.54;101734.94;4926396;28;126004;-67
2023/02/04 03:23:55;;;;;;;;;;;;;;;10.56;45.96;101744.31;4942974;28;97999;-66
2023/02/04 03:26:21;;;;;;;;;;;;;;;10.54;46.23;101756.41;4943177;28;98581;-67
2023/02/04 03:28:47;;;;;;;;;;;;;;;10.53;46.00;101768.22;4923646;28;100129;-67
2023/02/04 03:31:13;;;;;;;;;;;;;;;10.52;46.57;101774.69;4943867;28;127597;-67
2023/02/04 03:33:41;;;;;;;;;;;;;;;10.50;45.99;101780.31;4923303;28;128070;-67
2023/02/04 03:36:07;;;;;;;;;;;;;;;10.50;46.32;101790.28;4927431;28;98179;-66
2023/02/04 03:38:33;;;;;;;;;;;;;;;10.49;46.28;101799.41;4941557;28;116419;-67
2023/02/04 03:40:59;;;;;;;;;;;;;;;10.48;46.12;101803.16;4923585;28;98183;-67
2023/02/04 03:43:25;;;;;;;;;;;;;;;10.48;46.41;101816.63;4941771;28;106197;-66
2023/02/04 03:45:51;;;;;;;;;;;;;;;10.48;46.23;101828.25;4942301;28;111962;-66
2023/02/04 03:48:17;;;;;;;;;;;;;;;10.48;45.84;101828.25;4924837;28;129443;-66
2023/02/04 03:50:43;;;;;;;;;;;;;;;10.49;45.82;101850.63;4941397;28;128434;-67
2023/02/04 03:53:09;;;;;;;;;;;;;;;10.50;46.15;101855.00;4955924;28;126415;-67
2023/02/04 03:55:35;;;;;;;;;;;;;;;10.50;46.40;101863.91;4925976;28;98084;-66
2023/02/04 03:58:02;;;;;;;;;;;;;;;10.51;46.11;101870.09;4927840;28;126252;-67
2023/02/04 04:00:28;;;;;;;;;;;;;;;10.50;46.23;101874.69;4942716;28;98251;-67
2023/02/04 04:02:54;;;;;;;;;;;;;;;10.51;46.37;101880.88;4925411;28;98559;-67
2023/02/04 04:05:20;;;;;;;;;;;;;;;10.51;45.88;101888.97;4941541;28;97803;-66
2023/02/04 04:07:46;;;;;;;;;;;;;;;10.51;46.12;101902.44;4956903;28;128781;-66
2023/02/04 04:10:12;;;;;;;;;;;;;;;10.52;46.12;101904.09;4935145;28;128250;-67
2023/02/04 04:12:38;;;;;;;;;;;;;;;10.53;45.80;101921.91;4923383;28;127916;-67
2023/02/04 04:15:05;;;;;;;;;;;;;;;10.53;46.08;101927.28;4924346;28;117944;-67
2023/02/04 04:17:31;;;;;;;;;;;;;;;10.53;46.03;101932.69;4942288;28;98098;-67
2023/02/04 04:19:57;;;;;;;;;;;;;;;10.53;45.88;101940.78;4909028;28;128278;-68
2023/02/04 04:22:23;;;;;;;;;;;;;;;10.52;46.13;101942.66;4937856;28;126801;-67
2023/02/04 04:24:48;;;;;;;;;;;;;;;10.53;46.33;101951.56;4925353;28;103719;-67
2023/02/04 04:27:15;;;;;;;;;;;;;;;10.53;45.94;101949.72;4940060;28;126893;-67
2023/02/04 04:29:40;;;;;;;;;;;;;;;10.52;45.89;101964.22;4925993;28;98540;-67
2023/02/04 04:32:08;;;;;;;;;;;;;;;10.53;45.90;101959.66;4940582;28;127707;-67
2023/02/04 04:34:34;;;;;;;;;;;;;;;10.53;45.88;101968.59;4941910;28;98019;-68
2023/02/04 04:37:00;;;;;;;;;;;;;;;10.52;46.21;101980.41;4919397;28;125405;-67
2023/02/04 04:39:26;;;;;;;;;;;;;;;10.52;46.36;101975.00;4940589;28;99284;-68
2023/02/04 04:41:52;;;;;;;;;;;;;;;10.52;46.17;101987.66;4924980;28;98094;-67
2023/02/04 04:44:18;;;;;;;;;;;;;;;10.50;46.25;101995.19;4937663;28;98271;-67
2023/02/04 04:46:44;;;;;;;;;;;;;;;10.49;45.83;102004.31;4920489;28;98355;-66
2023/02/04 04:49:10;;;;;;;;;;;;;;;10.47;45.99;102011.81;4925835;28;128125;-66
2023/02/04 04:51:36;;;;;;;;;;;;;;;10.47;46.17;102025.28;4940588;28;126595;-66
2023/02/04 04:54:02;;;;;;;;;;;;;;;10.45;46.31;102030.06;4920960;28;117770;-66
2023/02/04 04:56:27;;;;;;;;;;;;;;;10.43;46.17;102045.66;4934378;28;131020;-67
2023/02/04 04:58:53;;;;;;;;;;;;;;;10.41;45.86;102047.75;4924855;28;119277;-66
2023/02/04 05:01:21;;;;;;;;;;;;;;;10.39;46.04;102057.97;4930523;28;117895;-67
2023/02/04 05:03:47;;;;;;;;;;;;;;;10.37;45.77;102055.47;4925543;28;98423;-67
2023/02/04 05:06:13;;;;;;;;;;;;;;;10.36;46.22;102071.88;4927336;28;99038;-67
2023/02/04 05:08:39;;;;;;;;;;;;;;;10.35;46.32;102075.63;4939302;28;98294;-67
2023/02/04 05:11:05;;;;;;;;;;;;;;;10.34;46.14;102088.28;4940748;28;106908;-67
2023/02/04 05:13:31;;;;;;;;;;;;;;;10.33;46.23;102086.63;4922206;28;116924;-67
2023/02/04 05:15:57;;;;;;;;;;;;;;;10.31;45.72;102094.94;4942174;28;127993;-67
2023/02/04 05:18:23;;;;;;;;;;;;;;;10.31;46.25;102100.34;4924003;28;126763;-67
2023/02/04 05:20:49;;;;;;;;;;;;;;;10.32;46.13;102106.56;4930217;28;122760;-67
2023/02/04 05:23:16;;;;;;;;;;;;;;;10.30;46.38;102114.88;4940362;28;116790;-67
2023/02/04 05:25:41;;;;;;;;;;;;;;;10.30;46.17;102128.34;4924804;28;100003;-67
2023/02/04 05:28:07;;;;;;;;;;;;;;;10.30;45.80;102132.94;4923987;28;118280;-67
2023/02/04 05:30:33;;;;;;;;;;;;;;;10.29;45.79;102139.34;4925522;28;99435;-68
2023/02/04 05:32:59;;;;;;;;;;;;;;;10.28;45.71;102141.22;4924451;28;98077;-67
2023/02/04 05:35:25;;;;;;;;;;;;;;;10.27;46.06;102144.97;4956856;28;129019;-67
2023/02/04 05:37:51;;;;;;;;;;;;;;;10.26;46.34;102148.72;4940542;28;128216;-67
2023/02/04 05:40:17;;;;;;;;;;;;;;;10.27;46.45;102154.94;4929412;28;127116;-67
2023/02/04 05:42:43;;;;;;;;;;;;;;;10.26;45.96;102159.50;4944589;28;98038;-67
2023/02/04 05:45:13;;;;;;;;;;;;;;;10.26;45.98;102164.91;4926163;28;128679;-67
2023/02/04 05:47:39;;;;;;;;;;;;;;;10.25;46.06;102173.19;4926995;28;99564;-67
2023/02/04 05:50:05;;;;;;;;;;;;;;;10.25;46.43;102170.50;4943252;28;128357;-67
2023/02/04 05:52:31;;;;;;;;;;;;;;;10.24;46.34;102179.59;4927030;28;105934;-67
2023/02/04 05:54:57;;;;;;;;;;;;;;;10.24;45.70;102179.59;4922784;28;126948;-67
2023/02/04 05:57:23;;;;;;;;;;;;;;;10.24;46.16;102195.78;4924031;28;98495;-67
2023/02/04 05:59:49;;;;;;;;;;;;;;;10.23;45.77;102194.13;4943613;28;128816;-67
2023/02/04 06:02:15;;;;;;;;;;;;;;;10.22;46.01;102198.69;4931256;28;116991;-67
2023/02/04 06:04:41;;;;;;;;;;;;;;;10.23;46.13;102213.00;4942340;28;127688;-67
2023/02/04 06:07:07;;;;;;;;;;;;;;;10.23;46.38;102215.69;4942840;28;98159;-66
2023/02/04 06:09:33;;;;;;;;;;;;;;;10.22;46.35;102214.88;4923516;28;130227;-66
2023/02/04 06:11:59;;;;;;;;;;;;;;;10.22;46.25;102214.06;4958767;28;98028;-66
2023/02/04 06:14:25;;;;;;;;;;;;;;;10.21;46.04;102223.97;4943144;28;118137;-66
2023/02/04 06:16:51;;;;;;;;;;;;;;;10.20;45.98;102226.91;4933178;28;128559;-66
2023/02/04 06:19:16;;;;;;;;;;;;;;;10.19;46.18;102236.88;4926962;28;98961;-66
2023/02/04 06:21:42;;;;;;;;;;;;;;;10.19;46.15;102246.81;4937917;28;117580;-67
2023/02/04 06:24:09;;;;;;;;;;;;;;;10.19;45.97;102255.72;4922577;28;126508;-67
2023/02/04 06:26:34;;;;;;;;;;;;;;;10.19;45.64;102263.00;4954586;28;98585;-67
2023/02/04 06:29:01;;;;;;;;;;;;;;;10.18;46.50;102269.41;4922084;28;126443;-66
2023/02/04 06:31:26;;;;;;;;;;;;;;;10.17;45.80;102271.28;4935611;28;98192;-66
2023/02/04 06:33:52;;;;;;;;;;;;;;;10.16;45.79;102280.41;4938984;28;128094;-67
2023/02/04 06:36:18;;;;;;;;;;;;;;;10.18;46.39;102282.88;4920891;28;128036;-66
2023/02/04 06:38:44;;;;;;;;;;;;;;;10.17;46.15;102282.06;4939281;28;126658;-66
2023/02/04 06:41:10;;;;;;;;;;;;;;;10.16;45.93;102293.91;4922431;28;117969;-67
2023/02/04 06:43:36;;;;;;;;;;;;;;;10.16;46.13;102291.19;4922326;28;123995;-66
2023/02/04 06:46:02;;;;;;;;;;;;;;;10.17;46.04;102309.00;4922422;28;130147;-67
2023/02/04 06:48:28;;;;;;;;;;;;;;;10.18;45.40;102309.84;4937772;28;129774;-66
2023/02/04 06:50:54;;;;;;;;;;;;;;;10.19;45.69;102314.19;4927029;28;116836;-67
2023/02/04 06:53:20;;;;;;;;;;;;;;;10.19;46.28;102319.59;4919033;28;128487;-67
2023/02/04 06:55:45;;;;;;;;;;;;;;;10.20;45.89;102321.22;4925776;28;117600;-66
2023/02/04 06:58:11;;;;;;;;;;;;;;;10.20;45.94;102326.63;4940707;28;116363;-66
2023/02/04 07:00:37;;;;;;;;;;;;;;;10.21;45.65;102322.88;4923282;28;117366;-67
2023/02/04 07:03:03;;;;;;;;;;;;;;;10.21;46.27;102318.31;4936893;28;120203;-67
2023/02/04 07:05:30;;;;;;;;;;;;;;;10.23;45.73;102326.19;4939578;28;98451;-68
2023/02/04 07:07:56;;;;;;;;;;;;;;;10.22;46.12;102322.69;4935673;28;99683;-67
2023/02/04 07:10:22;;;;;;;;;;;;;;;10.23;46.27;102329.72;4941946;28;117064;-67
2023/02/04 07:12:47;;;;;;;;;;;;;;;10.25;45.74;102324.94;4938414;28;128135;-67
2023/02/04 07:15:14;;;;;;;;;;;;;;;10.27;45.49;102340.91;4937794;28;127581;-66
2023/02/04 07:17:40;;;;;;;;;;;;;;;10.31;45.86;102342.13;4921140;28;97985;-67
2023/02/04 07:20:06;;;;;;;;;;;;;;;10.35;46.03;102355.97;4922411;28;98044;-66
2023/02/04 07:22:32;;;;;;;;;;;;;;;10.37;45.83;102346.63;4937130;28;99655;-66
2023/02/04 07:24:58;;;;;;;;;;;;;;;10.43;45.42;102350.31;4926243;28;129130;-67
2023/02/04 07:27:24;;;;;;;;;;;;;;;10.48;45.71;102347.78;4921364;28;128278;-67
2023/02/04 07:29:50;;;;;;;;;;;;;;;10.55;46.02;102343.16;4934227;28;117321;-67
2023/02/04 07:32:15;;;;;;;;;;;;;;;10.60;45.92;102342.47;4954285;28;128197;-67
2023/02/04 07:34:41;;;;;;;;;;;;;;;10.66;45.46;102347.00;4921544;28;127749;-67
2023/02/04 07:37:07;;;;;;;;;;;;;;;10.69;45.28;102344.69;4936547;28;127567;-69
2023/02/04 07:39:33;;;;;;;;;;;;;;;10.68;45.74;102350.28;4937728;28;108317;-67
2023/02/04 07:41:59;;;;;;;;;;;;;;;10.74;45.53;102361.00;4921646;28;99679;-67
2023/02/04 07:44:25;;;;;;;;;;;;;;;10.86;45.41;102354.88;4925815;28;98083;-67
2023/02/04 07:46:51;;;;;;;;;;;;;;;10.99;45.33;102358.25;4938366;28;128189;-67
2023/02/04 07:49:17;;;;;;;;;;;;;;;11.17;45.19;102349.34;4923780;28;116855;-67
2023/02/04 07:51:43;;;;;;;;;;;;;;;11.33;44.76;102357.88;4921211;28;128009;-67
2023/02/04 07:54:09;;;;;;;;;;;;;;;11.47;45.14;102362.88;4954037;28;99605;-66
2023/02/04 07:56:35;;;;;;;;;;;;;;;11.60;44.85;102358.38;4937623;28;101933;-67
2023/02/04 07:59:01;;;;;;;;;;;;;;;11.78;44.60;102358.31;4938037;28;98086;-66
2023/02/04 08:01:26;;;;;;;;;;;;;;;11.87;44.71;102358.84;4936609;28;128508;-68
2023/02/04 08:03:52;;;;;;;;;;;;;;;12.27;44.31;102364.47;4933077;28;128008;-68
2023/02/04 08:06:18;;;;;;;;;;;;;;;12.31;44.49;102371.06;4937999;28;98573;-67
2023/02/04 08:08:44;;;;;;;;;;;;;;;12.61;44.09;102376.38;4933880;28;117655;-67
2023/02/04 08:11:10;;;;;;;;;;;;;;;13.20;43.41;102379.88;4938451;28;124691;-67
2023/02/04 08:13:36;;;;;;;;;;;;;;;13.42;43.51;102382.78;4935429;28;130148;-68
2023/02/04 08:16:02;;;;;;;;;;;;;;;13.88;43.23;102396.41;4921080;28;126188;-67
2023/02/04 08:18:28;;;;;;;;;;;;;;;14.50;42.61;102401.81;4934284;28;108618;-66
2023/02/04 08:20:54;;;;;;;;;;;;;;;15.09;42.33;102409.50;4934958;28;99730;-66
2023/02/04 08:23:20;;;;;;;;;;;;;;;15.08;42.53;102410.56;4937556;28;127440;-66
2023/02/04 08:25:46;;;;;;;;;;;;;;;14.95;43.18;102409.03;4921572;28;123411;-67
2023/02/04 08:28:12;;;;;;;;;;;;;;;15.35;42.80;102421.53;4938476;28;98438;-67
2023/02/04 08:30:37;;;;;;;;;;;;;;;15.86;42.33;102424.88;4935551;28;128692;-67
2023/02/04 08:33:03;;;;;;;;;;;;;;;16.68;41.81;102423.72;4919656;28;129280;-67
2023/02/04 08:35:29;;;;;;;;;;;;;;;17.38;41.37;102430.69;4937737;28;126821;-67
2023/02/04 08:37:55;;;;;;;;;;;;;;;18.05;41.02;102431.75;4920655;28;115919;-67
2023/02/04 08:40:21;;;;;;;;;;;;;;;18.64;40.62;102435.88;4949429;28;115995;-68
2023/02/04 08:42:47;;;;;;;;;;;;;;;18.91;40.70;102451.19;4920095;28;127693;-67
2023/02/04 08:45:13;;;;;;;;;;;;;;;19.41;40.76;102452.13;4924430;28;128013;-68
2023/02/04 08:47:39;;;;;;;;;;;;;;;19.93;40.52;102461.78;4921042;28;98164;-68
2023/02/04 08:50:05;;;;;;;;;;;;;;;20.37;40.64;102455.44;4919058;28;128504;-68
2023/02/04 08:52:31;;;;;;;;;;;;;;;20.74;40.58;102465.84;4919024;28;129252;-68
2023/02/04 08:54:57;;;;;;;;;;;;;;;21.14;40.76;102472.00;4921644;28;127592;-69
2023/02/04 08:57:23;;;;;;;;;;;;;;;21.53;40.77;102483.66;4919822;28;118471;-67
2023/02/04 08:59:49;;;;;;;;;;;;;;;21.52;41.21;102484.75;4917988;28;109022;-67
2023/02/04 09:02:15;;;;;;;;;;;;;;;21.57;41.36;102475.66;4918601;28;128372;-69
2023/02/04 09:04:40;;;;;;;;;;;;;;;21.53;41.73;102483.66;4920962;28;108449;-67
2023/02/04 09:07:06;;;;;;;;;;;;;;;22.21;41.05;102495.41;4929329;28;118124;-69
2023/02/04 09:09:32;;;;;;;;;;;;;;;22.73;40.78;102490.72;4920899;28;128791;-67
2023/02/04 09:12:00;;;;;;;;;;;;;;;23.22;40.66;102500.31;4937562;28;128679;-70
2023/02/04 09:14:26;;;;;;;;;;;;;;;23.53;41.08;102500.50;4927268;28;100483;-68
2023/02/04 09:16:52;;;;;;;;;;;;;;;23.75;41.28;102499.81;4920938;28;116702;-68
2023/02/04 09:19:24;;;;;;;;;;;;;;;24.00;41.21;102502.00;4924040;28;98219;-67
2023/02/04 09:21:50;;;;;;;;;;;;;;;24.27;41.66;102516.03;4942594;28;98331;-69
2023/02/04 09:24:16;;;;;;;;;;;;;;;24.56;41.57;102510.91;4927572;28;120887;-67
2023/02/04 09:26:42;;;;;;;;;;;;;;;24.68;41.45;102518.63;4956998;28;98439;-67
2023/02/04 09:29:08;;;;;;;;;;;;;;;24.72;41.98;102530.69;4939859;28;110929;-68
2023/02/04 09:31:34;;;;;;;;;;;;;;;24.27;42.62;102530.59;4938650;28;116097;-69
2023/02/04 09:34:00;;;;;;;;;;;;;;;23.63;43.16;102538.03;4940398;28;97998;-69
2023/02/04 09:36:29;;;;;;;;;;;;;;;23.44;43.10;102541.69;4921254;28;110931;-68
2023/02/04 09:38:55;;;;;;;;;;;;;;;23.75;42.71;102538.38;4923135;28;98367;-69
2023/02/04 09:41:21;;;;;;;;;;;;;;;23.96;42.39;102534.03;4928339;28;99590;-71
2023/02/04 09:43:47;;;;;;;;;;;;;;;24.19;42.19;102531.34;4938999;28;127341;-69
2023/02/04 09:46:23;;;;;;;;;;;;;;;24.37;42.27;102543.34;4909833;28;99675;-70
2023/02/04 09:48:49;;;;;;;;;;;;;;;24.51;42.26;102541.38;4933302;28;98548;-70
2023/02/04 09:51:21;;;;;;;;;;;;;;;24.70;42.34;102544.75;4940971;28;127956;-71
2023/02/04 09:53:47;;;;;;;;;;;;;;;24.91;41.91;102550.56;4923576;28;119118;-68
2023/02/04 09:56:13;;;;;;;;;;;;;;;24.96;42.21;102544.13;4923242;28;98344;-71
2023/02/04 09:58:39;;;;;;;;;;;;;;;25.04;41.97;102559.91;4941216;28;98928;-67
2023/02/04 10:01:12;;;;;;;;;;;;;;;25.11;42.01;102554.78;4937281;28;128561;-70
2023/02/04 10:03:45;;;;;;;;;;;;;;;25.08;42.22;102558.16;4920688;28;112070;-67
2023/02/04 10:06:12;;;;;;;;;;;;;;;24.98;42.10;102559.22;4940444;28;98137;-67
2023/02/04 10:08:39;;;;;;;;;;;;;;;24.78;42.34;102562.50;4937822;28;99528;-71
2023/02/04 10:11:07;;;;;;;;;;;;;;;24.49;42.83;102563.75;4939821;28;99252;-70
2023/02/04 10:13:36;;;;;;;;;;;;;;;24.15;43.19;102566.97;4939877;28;98159;-66
2023/02/04 10:16:02;;;;;;;;;;;;;;;23.81;43.40;102561.09;4922850;28;98180;-70
2023/02/04 10:18:30;;;;;;;;;;;;;;;23.52;43.49;102563.00;4935261;28;116065;-70
2023/02/04 10:21:17;;;;;;;;;;;;;;;23.26;43.47;102565.44;4921940;28;117434;-70
2023/02/04 10:23:45;;;;;;;;;;;;;;;22.99;43.77;102568.09;4937292;28;116847;-67
2023/02/04 10:26:12;;;;;;;;;;;;;;;22.76;43.87;102564.34;4954313;28;98108;-67
2023/02/04 10:28:39;;;;;;;;;;;;;;;22.54;43.70;102563.03;4939095;28;98681;-70
2023/02/04 10:31:07;;;;;;;;;;;;;;;22.35;43.82;102564.13;4954303;28;98260;-70
2023/02/04 10:33:35;;;;;;;;;;;;;;;22.15;43.99;102568.00;4937399;28;99765;-67
2023/02/04 10:36:02;;;;;;;;;;;;;;;21.99;44.06;102564.59;4940229;28;97977;-67
2023/02/04 10:38:28;;;;;;;;;;;;;;;21.97;43.88;102572.31;4919219;28;99646;-67
2023/02/04 10:41:01;;;;;;;;;;;;;;;22.11;43.59;102569.66;4927416;28;128952;-70
2023/02/04 10:43:27;;;;;;;;;;;;;;;22.04;43.62;102573.56;4924411;28;98188;-69
2023/02/04 10:45:58;;;;;;;;;;;;;;;21.88;43.59;102583.13;4938956;28;116602;-67
2023/02/04 10:48:24;;;;;;;;;;;;;;;21.42;44.04;102577.31;4954561;28;98811;-69
2023/02/04 10:50:50;;;;;;;;;;;;;;;21.26;44.10;102582.97;4927635;28;98382;-70
2023/02/04 10:56:03;;;;;;;;;;;;;;;21.26;43.70;102573.88;4938703;28;98068;-69
2023/02/04 10:58:29;;;;;;;;;;;;;;;21.23;43.79;102579.97;4938350;28;119966;-67
2023/02/04 11:00:55;;;;;;;;;;;;;;;21.22;43.69;102584.63;4937757;28;98769;-71
2023/02/04 11:03:23;;;;;;;;;;;;;;;21.39;43.42;102581.47;4954452;28;126788;-70
2023/02/04 11:05:49;;;;;;;;;;;;;;;21.18;43.60;102578.09;4939361;28;111733;-71
2023/02/04 11:08:23;;;;;;;;;;;;;;;20.80;44.03;102582.53;4936447;28;127837;-67
2023/02/04 11:10:59;;;;;;;;;;;;;;;20.74;44.02;102587.22;4919418;28;98398;-69
2023/02/04 11:13:48;;;;;;;;;;;;;;;20.75;43.82;102579.81;4920061;28;127105;-70
2023/02/04 11:16:17;;;;;;;;;;;;;;;20.91;43.54;102580.53;4931515;28;98401;-70
2023/02/04 11:18:51;;;;;;;;;;;;;;;20.48;44.13;102583.00;4957112;28;99421;-67
2023/02/04 11:21:33;;;;;;;;;;;;;;;20.00;44.39;102582.66;4938874;28;121146;-67
2023/02/04 11:24:22;;;;;;;;;;;;;;;19.57;44.78;102583.06;4956186;28;98018;-67
2023/02/04 11:26:53;;;;;;;;;;;;;;;19.16;45.04;102587.78;4925537;28;98185;-67
2023/02/04 11:29:25;;;;;;;;;;;;;;;18.82;45.15;102599.25;4939242;28;99270;-69
2023/02/04 11:31:51;;;;;;;;;;;;;;;18.51;45.17;102592.03;4923059;28;98371;-69
2023/02/04 11:34:18;;;;;;;;;;;;;;;18.28;45.25;102593.38;4954779;28;98345;-67
2023/02/04 11:37:03;;;;;;;;;;;;;;;18.07;45.28;102593.28;4955263;28;98118;-67
2023/02/04 11:39:37;;;;;;;;;;;;;;;17.94;45.13;102595.69;4956057;28;98769;-67
2023/02/04 11:42:23;;;;;;;;;;;;;;;17.90;44.95;102588.03;4932339;28;114592;-70
2023/02/04 11:45:07;;;;;;;;;;;;;;;18.04;44.72;102585.66;4935298;28;98121;-70
2023/02/04 11:47:36;;;;;;;;;;;;;;;18.29;44.31;102593.09;4920942;28;111752;-67
2023/02/04 11:50:16;;;;;;;;;;;;;;;18.23;44.50;102588.69;4934394;28;98538;-68
2023/02/04 11:52:41;;;;;;;;;;;;;;;18.11;44.61;102596.28;4921694;28;98968;-69
2023/02/04 11:55:09;;;;;;;;;;;;;;;18.01;44.53;102596.28;4953995;28;98077;-66
2023/02/04 11:57:42;;;;;;;;;;;;;;;17.84;44.74;102602.75;4937195;28;98336;-67
2023/02/04 12:00:25;;;;;;;;;;;;;;;17.74;44.81;102596.38;4956462;28;98381;-68
2023/02/04 12:03:10;;;;;;;;;;;;;;;17.75;44.73;102598.84;4936096;28;98644;-67
2023/02/04 12:05:41;;;;;;;;;;;;;;;17.55;44.67;102613.16;4935647;28;98471;-68
2023/02/04 12:08:23;;;;;;;;;;;;;;;17.32;44.82;102621.72;4953037;28;98077;-67
2023/02/04 12:11:01;;;;;;;;;;;;;;;17.12;45.15;102620.47;4954298;28;98166;-66
2023/02/04 12:13:27;;;;;;;;;;;;;;;16.94;45.12;102626.31;4953880;28;98179;-70
2023/02/04 12:15:57;;;;;;;;;;;;;;;16.75;45.29;102625.84;4922231;28;99311;-67
2023/02/04 12:18:23;;;;;;;;;;;;;;;16.60;45.13;102631.91;4918649;28;111837;-69
2023/02/04 12:20:49;;;;;;;;;;;;;;;16.53;45.19;102633.19;4936274;28;100026;-69
2023/02/04 12:23:15;;;;;;;;;;;;;;;16.48;45.20;102633.16;4932781;28;127945;-71
2023/02/04 12:25:40;;;;;;;;;;;;;;;16.48;44.87;102635.88;4950845;28;126587;-70
2023/02/04 12:28:06;;;;;;;;;;;;;;;16.49;44.75;102635.59;4934707;28;118469;-68
2023/02/04 12:30:32;;;;;;;;;;;;;;;16.45;44.92;102634.47;4936839;28;127688;-69
2023/02/04 12:32:58;;;;;;;;;;;;;;;16.37;44.83;102635.75;4918376;28;130222;-67